Time;durP1;ratioP1;P1;durP2;ratioP2;P2;SDS_P1;SDS_P2;PMS_P1;PMS_P2;Temp;Humidity;BMP_temperature;BMP_pressure;BME280_temperature;BME280_humidity;BME280_pressure;Samples;Min_cycle;Max_cycle;Signal;HPM_P1;HPM_P2
2021/07/16 00:00:08;;;;;;;4.40;3.70;;;;;;;20.40;100.00;96145.13;5053361;28;20548;-81
2021/07/16 00:02:37;;;;;;;8.70;4.07;;;;;;;20.52;100.00;96147.06;5053348;28;20247;-81
2021/07/16 00:05:06;;;;;;;5.80;3.60;;;;;;;20.42;100.00;96140.38;5053302;28;20202;-81
2021/07/16 00:07:33;;;;;;;8.83;3.50;;;;;;;20.49;100.00;96137.63;5053781;28;20243;-81
2021/07/16 00:10:00;;;;;;;5.53;3.80;;;;;;;20.53;100.00;96130.81;5053226;28;20233;-82
2021/07/16 00:12:27;;;;;;;4.43;3.43;;;;;;;20.36;100.00;96127.09;5053568;28;20693;-81
2021/07/16 00:14:55;;;;;;;6.17;3.90;;;;;;;20.26;100.00;96119.59;5053048;28;20284;-82
2021/07/16 00:17:22;;;;;;;5.87;4.13;;;;;;;20.49;100.00;96123.47;5053139;28;20226;-83
2021/07/16 00:19:51;;;;;;;16.33;4.37;;;;;;;20.51;100.00;96116.91;5052924;28;20233;-81
2021/07/16 00:22:19;;;;;;;10.50;3.93;;;;;;;20.67;100.00;96115.44;5053417;28;20267;-82
2021/07/16 00:24:47;;;;;;;11.40;4.23;;;;;;;20.36;100.00;96119.09;5053114;28;20553;-82
2021/07/16 00:27:14;;;;;;;7.47;4.00;;;;;;;20.60;100.00;96112.03;5052810;28;20218;-82
2021/07/16 00:29:41;;;;;;;4.70;4.00;;;;;;;20.53;100.00;96106.78;5052822;28;20198;-82
2021/07/16 00:32:09;;;;;;;5.17;4.07;;;;;;;20.40;100.00;96102.41;5053150;28;20202;-81
2021/07/16 00:34:36;;;;;;;5.43;3.67;;;;;;;20.13;100.00;96101.91;5053024;28;20193;-82
2021/07/16 00:37:05;;;;;;;7.33;5.03;;;;;;;20.14;100.00;96087.53;5052576;28;20316;-81
2021/07/16 00:39:34;;;;;;;6.27;4.00;;;;;;;20.28;100.00;96092.72;5051655;28;20194;-81
2021/07/16 00:42:01;;;;;;;7.67;4.37;;;;;;;20.36;100.00;96093.22;5052607;28;20198;-81
2021/07/16 00:44:29;;;;;;;8.37;3.90;;;;;;;20.47;100.00;96099.66;5052883;28;20198;-82
2021/07/16 00:46:56;;;;;;;5.17;4.20;;;;;;;20.39;100.00;96095.44;5052520;28;20728;-82
2021/07/16 00:49:24;;;;;;;9.63;4.40;;;;;;;20.51;100.00;96097.41;5052434;28;20240;-81
2021/07/16 00:51:51;;;;;;;4.07;3.67;;;;;;;20.36;100.00;96105.75;5052932;28;20229;-82
2021/07/16 00:54:20;;;;;;;5.73;4.53;;;;;;;20.08;100.00;96096.41;5052825;28;20205;-82
2021/07/16 00:56:48;;;;;;;4.63;3.73;;;;;;;20.11;100.00;96087.97;5052131;28;20237;-82
2021/07/16 00:59:16;;;;;;;6.23;3.87;;;;;;;19.98;100.00;96077.44;5052366;28;20205;-81
2021/07/16 01:01:44;;;;;;;6.47;4.43;;;;;;;20.02;100.00;96078.66;5052335;28;20580;-82
2021/07/16 01:04:11;;;;;;;6.97;4.20;;;;;;;20.10;100.00;96077.53;5052169;28;20236;-82
2021/07/16 01:06:39;;;;;;;5.60;4.23;;;;;;;19.93;100.00;96075.44;5052106;28;20204;-82
2021/07/16 01:09:06;;;;;;;6.80;4.20;;;;;;;19.81;100.00;96063.91;5052221;28;20200;-82
2021/07/16 01:11:36;;;;;;;5.67;4.80;;;;;;;20.01;100.00;96071.66;5052293;28;20197;-82
2021/07/16 01:14:04;;;;;;;9.87;5.27;;;;;;;19.85;100.00;96065.09;5052320;28;20236;-82
2021/07/16 01:16:31;;;;;;;4.47;4.07;;;;;;;19.96;100.00;96066.19;5052515;28;20281;-82
2021/07/16 01:19:00;;;;;;;6.43;4.13;;;;;;;20.05;100.00;96070.19;5051608;28;20283;-82
2021/07/16 01:21:29;;;;;;;9.80;4.87;;;;;;;19.99;100.00;96071.09;5052017;28;20658;-82
2021/07/16 01:23:58;;;;;;;7.27;3.53;;;;;;;19.97;100.00;96064.34;5051906;28;20228;-82
2021/07/16 01:26:25;;;;;;;5.13;4.03;;;;;;;19.81;100.00;96063.06;5051738;28;20198;-81
2021/07/16 01:28:53;;;;;;;9.00;3.80;;;;;;;19.98;100.00;96061.44;5051898;28;20748;-82
2021/07/16 01:31:21;;;;;;;9.27;5.27;;;;;;;19.93;100.00;96061.31;5051918;28;20281;-82
2021/07/16 01:33:49;;;;;;;8.83;4.67;;;;;;;19.81;100.00;96063.06;5052252;28;20208;-81
2021/07/16 01:36:16;;;;;;;5.93;3.63;;;;;;;19.80;100.00;96066.78;5051777;28;20671;-82
2021/07/16 01:38:44;;;;;;;4.63;4.13;;;;;;;19.64;100.00;96046.81;5051562;28;20312;-81
2021/07/16 01:41:13;;;;;;;9.03;4.23;;;;;;;19.72;100.00;96051.88;5051836;28;20202;-82
2021/07/16 01:43:40;;;;;;;8.17;4.20;;;;;;;19.79;100.00;96047.28;5051602;28;20601;-81
2021/07/16 01:46:07;;;;;;;5.57;3.73;;;;;;;19.82;100.00;96054.03;5051825;28;20716;-81
2021/07/16 01:48:35;;;;;;;8.00;5.03;;;;;;;19.63;100.00;96043.34;5051582;28;20574;-81
2021/07/16 01:51:02;;;;;;;4.77;4.27;;;;;;;19.82;100.00;96041.53;5051433;28;20285;-81
2021/07/16 01:53:29;;;;;;;10.20;4.97;;;;;;;19.89;100.00;96052.13;5051508;28;20205;-81
2021/07/16 01:55:57;;;;;;;7.30;4.40;;;;;;;19.67;100.00;96044.56;5051532;28;20244;-82
2021/07/16 01:58:26;;;;;;;7.63;4.37;;;;;;;19.40;100.00;96043.16;5051137;28;20607;-82
2021/07/16 02:00:53;;;;;;;5.17;4.30;;;;;;;19.34;100.00;96033.38;5051703;28;20197;-82
2021/07/16 02:03:20;;;;;;;5.97;4.00;;;;;;;19.36;100.00;96028.63;5051565;28;20237;-82
2021/07/16 02:05:48;;;;;;;5.90;4.13;;;;;;;19.25;100.00;96028.28;5051915;28;20201;-82
2021/07/16 02:08:18;;;;;;;7.63;4.07;;;;;;;19.43;100.00;96024.88;5051331;28;20801;-82
2021/07/16 02:10:46;;;;;;;4.83;3.57;;;;;;;19.38;100.00;96015.91;5051553;28;20244;-81
2021/07/16 02:13:14;;;;;;;4.67;3.77;;;;;;;19.49;100.00;96015.97;5051264;28;20280;-82
2021/07/16 02:15:46;;;;;;;4.90;3.77;;;;;;;19.60;100.00;96010.94;5051577;28;20258;-82
2021/07/16 02:18:14;;;;;;;5.70;3.80;;;;;;;19.55;100.00;96026.81;5051177;28;20248;-81
2021/07/16 02:20:42;;;;;;;5.57;3.90;;;;;;;19.44;100.00;96028.34;5051165;28;20674;-82
2021/07/16 02:23:12;;;;;;;7.67;4.50;;;;;;;19.38;100.00;96034.56;5051206;28;20289;-82
2021/07/16 02:25:42;;;;;;;6.93;3.93;;;;;;;19.52;100.00;96025.38;5051387;28;20292;-82
2021/07/16 02:28:13;;;;;;;3.50;3.13;;;;;;;19.39;100.00;96036.19;5051094;28;20205;-82
2021/07/16 02:30:40;;;;;;;7.77;3.43;;;;;;;19.37;100.00;96024.94;5051494;28;20190;-82
2021/07/16 02:33:09;;;;;;;4.00;3.43;;;;;;;19.20;100.00;96016.69;5051120;28;20240;-81
2021/07/16 02:35:36;;;;;;;8.10;3.10;;;;;;;19.39;100.00;96012.19;5051299;28;20202;-81
2021/07/16 02:38:05;;;;;;;4.33;3.50;;;;;;;19.36;100.00;96013.47;5050777;28;20221;-81
2021/07/16 02:40:34;;;;;;;6.83;4.20;;;;;;;19.23;100.00;96022.38;5051166;28;20198;-81
2021/07/16 02:43:02;;;;;;;4.90;3.90;;;;;;;19.39;100.00;96020.19;5051055;28;20202;-81
2021/07/16 02:45:29;;;;;;;8.77;3.57;;;;;;;19.51;100.00;96029.09;5051299;28;20313;-81
2021/07/16 02:47:56;;;;;;;5.37;3.77;;;;;;;19.59;100.00;96044.78;5050739;28;20198;-80
2021/07/16 02:50:27;;;;;;;4.63;3.93;;;;;;;19.36;100.00;96025.94;5051171;28;20201;-81
2021/07/16 02:52:55;;;;;;;5.03;3.40;;;;;;;19.54;100.00;96026.00;5050973;28;20190;-81
2021/07/16 02:55:23;;;;;;;7.40;3.83;;;;;;;19.62;100.00;96033.69;5051041;28;20602;-81
2021/07/16 02:57:51;;;;;;;7.73;3.73;;;;;;;19.55;100.00;96032.13;5050657;28;20321;-81
2021/07/16 03:00:20;;;;;;;6.17;3.60;;;;;;;19.16;100.00;96026.97;5050986;28;20205;-81
2021/07/16 03:02:49;;;;;;;4.77;4.17;;;;;;;19.08;100.00;96024.56;5052520;28;20578;-81
2021/07/16 03:05:18;;;;;;;5.73;3.77;;;;;;;19.10;100.00;96016.38;5054500;28;20782;-81
2021/07/16 03:07:48;;;;;;;4.27;3.87;;;;;;;18.94;100.00;96007.06;5054611;28;20194;-81
2021/07/16 03:10:17;;;;;;;5.73;4.03;;;;;;;18.88;100.00;96013.28;5054563;28;20186;-81
2021/07/16 03:12:44;;;;;;;4.43;3.80;;;;;;;19.16;100.00;96018.97;5051313;28;20656;-83
2021/07/16 03:15:14;;;;;;;4.67;4.17;;;;;;;19.04;100.00;96023.38;5053937;28;20204;-83
2021/07/16 03:17:42;;;;;;;7.23;4.10;;;;;;;19.11;100.00;96013.47;5054515;28;20224;-82
2021/07/16 03:20:11;;;;;;;4.73;4.30;;;;;;;19.12;100.00;96001.81;5054222;28;20643;-80
2021/07/16 03:22:38;;;;;;;6.17;4.00;;;;;;;19.00;100.00;95995.53;5054388;28;20206;-82
2021/07/16 03:25:10;;;;;;;4.57;3.80;;;;;;;18.88;100.00;95991.97;5053567;28;20645;-83
2021/07/16 03:27:38;;;;;;;3.90;3.60;;;;;;;19.09;100.00;95991.59;5052761;28;20232;-82
2021/07/16 03:30:07;;;;;;;5.17;3.63;;;;;;;18.92;100.00;95990.50;5053921;28;20293;-81
2021/07/16 03:32:35;;;;;;;4.63;4.20;;;;;;;19.09;100.00;96002.22;5054158;28;20272;-82
2021/07/16 03:35:02;;;;;;;7.40;4.27;;;;;;;19.01;100.00;95971.34;5053920;28;20292;-82
2021/07/16 03:37:30;;;;;;;10.00;4.60;;;;;;;19.07;100.00;95966.19;5053788;28;20578;-82
2021/07/16 03:39:57;;;;;;;8.20;3.87;;;;;;;19.17;100.00;95983.28;5053499;28;20601;-81
2021/07/16 03:42:26;;;;;;;10.23;4.90;;;;;;;19.23;100.00;95995.75;5053854;28;20663;-81
2021/07/16 03:44:54;;;;;;;6.77;4.77;;;;;;;19.09;100.00;95996.91;5053781;28;20194;-81
2021/07/16 03:47:21;;;;;;;4.43;3.80;;;;;;;19.39;100.00;96009.53;5053632;28;20206;-81
2021/07/16 03:49:49;;;;;;;4.57;4.17;;;;;;;19.21;100.00;96016.44;5053701;28;20285;-81
2021/07/16 03:52:16;;;;;;;4.77;3.90;;;;;;;19.21;100.00;96008.47;5053698;28;20190;-81
2021/07/16 03:54:44;;;;;;;6.47;4.57;;;;;;;19.24;100.00;96007.22;5053811;28;20197;-79
2021/07/16 03:57:11;;;;;;;8.93;4.00;;;;;;;19.08;100.00;96008.56;5053150;28;20333;-80
2021/07/16 03:59:39;;;;;;;5.87;3.77;;;;;;;19.03;100.00;95997.78;5053333;28;20226;-79
2021/07/16 04:02:07;;;;;;;5.80;4.10;;;;;;;19.12;100.00;95998.28;5054231;28;20194;-80
2021/07/16 04:04:34;;;;;;;8.30;4.40;;;;;;;19.10;100.00;96003.84;5053264;28;20689;-79
2021/07/16 04:07:05;;;;;;;11.10;4.47;;;;;;;19.24;100.00;96002.69;5053545;28;20205;-80
2021/07/16 04:09:32;;;;;;;6.23;4.67;;;;;;;19.21;100.00;95997.81;5053460;28;20197;-80
2021/07/16 04:12:08;;;;;;;6.73;3.87;;;;;;;19.19;100.00;96001.75;5053401;28;20284;-80
2021/07/16 04:14:36;;;;;;;4.23;3.40;;;;;;;19.28;100.00;95991.59;5053035;28;20241;-81
2021/07/16 04:17:08;;;;;;;8.10;4.50;;;;;;;19.29;100.00;95987.91;5053307;28;20198;-81
2021/07/16 04:19:36;;;;;;;6.53;4.10;;;;;;;19.14;100.00;95981.06;5053136;28;20202;-82
2021/07/16 04:22:03;;;;;;;7.10;4.30;;;;;;;19.12;100.00;95977.81;5053017;28;20663;-81
2021/07/16 04:24:31;;;;;;;7.50;4.77;;;;;;;19.07;100.00;95971.50;5053005;28;20289;-82
2021/07/16 04:26:58;;;;;;;4.57;3.97;;;;;;;18.94;100.00;95965.25;5053495;28;20727;-81
2021/07/16 04:29:25;;;;;;;5.80;4.27;;;;;;;19.01;100.00;95954.56;5052804;28;20617;-80
2021/07/16 04:31:53;;;;;;;9.70;5.77;;;;;;;18.86;100.00;95951.41;5053192;28;20197;-81
2021/07/16 04:34:22;;;;;;;8.40;3.67;;;;;;;18.73;100.00;95942.50;5052923;28;20208;-81
2021/07/16 04:36:49;;;;;;;8.73;4.43;;;;;;;18.74;100.00;95944.16;5052733;28;20233;-81
2021/07/16 04:39:16;;;;;;;6.53;4.37;;;;;;;18.96;100.00;95936.56;5053220;28;20257;-81
2021/07/16 04:41:44;;;;;;;7.03;4.30;;;;;;;18.96;100.00;95923.25;5052191;28;20202;-80
2021/07/16 04:44:11;;;;;;;6.33;4.23;;;;;;;19.00;100.00;95928.97;5052711;28;20737;-81
2021/07/16 04:46:38;;;;;;;5.53;5.03;;;;;;;19.03;100.00;95931.19;5052934;28;20260;-80
2021/07/16 04:49:06;;;;;;;8.70;4.83;;;;;;;19.33;100.00;95941.13;5052439;28;20190;-81
2021/07/16 04:51:37;;;;;;;6.47;4.07;;;;;;;19.30;100.00;95947.72;5053085;28;20197;-81
2021/07/16 04:54:06;;;;;;;5.03;3.67;;;;;;;19.42;100.00;95955.78;5052613;28;20643;-81
2021/07/16 04:56:35;;;;;;;8.13;3.83;;;;;;;19.14;100.00;95949.09;5052571;28;20229;-81
2021/07/16 04:59:03;;;;;;;5.87;4.27;;;;;;;19.25;100.00;95940.38;5052722;28;20230;-81
2021/07/16 05:01:31;;;;;;;7.07;4.83;;;;;;;19.42;100.00;95953.94;5052528;28;20662;-81
2021/07/16 05:03:58;;;;;;;6.40;4.40;;;;;;;19.63;100.00;95947.38;5052575;28;20194;-80
2021/07/16 05:06:25;;;;;;;9.67;4.73;;;;;;;19.75;100.00;95927.97;5052702;28;20198;-81
2021/07/16 05:08:55;;;;;;;4.83;4.40;;;;;;;19.75;100.00;95922.66;5052140;28;20217;-81
2021/07/16 05:11:22;;;;;;;5.17;4.37;;;;;;;20.02;100.00;95926.59;5052575;28;20237;-81
2021/07/16 05:13:50;;;;;;;6.20;4.10;;;;;;;20.23;100.00;95937.78;5052148;28;20204;-80
2021/07/16 05:16:18;;;;;;;5.50;4.00;;;;;;;20.29;100.00;95958.22;5052258;28;20200;-81
2021/07/16 05:18:46;;;;;;;5.93;4.07;;;;;;;20.39;100.00;95999.34;5051835;28;20715;-81
2021/07/16 05:21:14;;;;;;;5.07;3.10;;;;;;;20.50;100.00;96010.28;5052208;28;20237;-81
2021/07/16 05:23:42;;;;;;;5.40;4.23;;;;;;;20.62;100.00;96025.34;5051994;28;20248;-80
2021/07/16 05:26:11;;;;;;;9.63;4.30;;;;;;;20.73;100.00;96022.94;5051357;28;20259;-81
2021/07/16 05:28:39;;;;;;;8.33;5.07;;;;;;;20.83;100.00;96016.00;5051894;28;20662;-80
2021/07/16 05:31:08;;;;;;;12.13;4.27;;;;;;;21.06;100.00;96011.72;5052201;28;20224;-80
2021/07/16 05:33:35;;;;;;;11.10;4.20;;;;;;;21.23;100.00;96014.53;5051868;28;20252;-80
2021/07/16 05:36:03;;;;;;;9.83;4.83;;;;;;;21.48;100.00;96020.50;5052014;28;20243;-81
2021/07/16 05:38:30;;;;;;;5.20;4.00;;;;;;;21.65;100.00;96030.47;5052104;28;20304;-81
2021/07/16 05:40:58;;;;;;;9.33;4.40;;;;;;;21.83;100.00;96038.38;5051968;28;20205;-80
2021/07/16 05:43:26;;;;;;;6.90;3.93;;;;;;;22.06;100.00;96045.53;5051721;28;20240;-81
2021/07/16 05:45:54;;;;;;;6.33;4.60;;;;;;;22.35;100.00;96046.41;5051702;28;20252;-81
2021/07/16 05:48:21;;;;;;;10.70;4.87;;;;;;;22.57;100.00;96054.59;5052126;28;20247;-81
2021/07/16 05:50:49;;;;;;;10.70;4.07;;;;;;;22.84;100.00;96062.06;5052270;28;20202;-81
2021/07/16 05:53:17;;;;;;;6.53;4.13;;;;;;;23.03;100.00;96074.19;5051974;28;20637;-81
2021/07/16 05:55:45;;;;;;;13.87;4.73;;;;;;;23.22;100.00;96070.25;5051772;28;20288;-81
2021/07/16 05:58:12;;;;;;;7.20;4.87;;;;;;;23.45;100.00;96080.00;5051250;28;20202;-81
2021/07/16 06:00:41;;;;;;;11.70;4.50;;;;;;;23.70;100.00;96070.75;5051981;28;20201;-81
2021/07/16 06:03:09;;;;;;;12.07;4.83;;;;;;;23.88;100.00;96077.72;5051864;28;20253;-81
2021/07/16 06:05:36;;;;;;;7.53;4.83;;;;;;;24.08;100.00;96074.50;5051955;28;20736;-82
2021/07/16 06:08:05;;;;;;;10.33;4.37;;;;;;;24.23;100.00;96079.25;5051879;28;20198;-81
2021/07/16 06:10:32;;;;;;;6.17;4.43;;;;;;;24.43;100.00;96088.38;5051637;28;20197;-81
2021/07/16 06:13:00;;;;;;;6.73;3.83;;;;;;;24.65;100.00;96087.56;5051408;28;20205;-81
2021/07/16 06:15:27;;;;;;;8.07;3.93;;;;;;;24.72;100.00;96085.47;5051878;28;20198;-81
2021/07/16 06:17:56;;;;;;;5.43;3.20;;;;;;;24.88;100.00;96114.16;5051500;28;20200;-81
2021/07/16 06:20:23;;;;;;;5.83;4.23;;;;;;;24.96;100.00;96120.13;5051500;28;20221;-81
2021/07/16 06:22:51;;;;;;;4.27;3.83;;;;;;;25.17;100.00;96111.22;5052013;28;20276;-81
2021/07/16 06:25:19;;;;;;;7.17;3.57;;;;;;;25.37;100.00;96108.72;5051435;28;20206;-81
2021/07/16 06:27:47;;;;;;;6.47;4.10;;;;;;;25.50;100.00;96104.81;5051502;28;20281;-81
2021/07/16 06:30:17;;;;;;;11.80;4.03;;;;;;;25.70;100.00;96103.31;5051458;28;20682;-81
2021/07/16 06:32:45;;;;;;;7.33;3.80;;;;;;;25.79;100.00;96112.53;5051396;28;20205;-81
2021/07/16 06:35:14;;;;;;;5.40;3.57;;;;;;;25.66;100.00;96110.28;5051609;28;20194;-82
2021/07/16 06:37:42;;;;;;;3.57;2.90;;;;;;;25.77;100.00;96109.28;5054902;28;20206;-82
2021/07/16 06:40:10;;;;;;;7.03;3.70;;;;;;;25.87;100.00;96108.59;5055144;28;20308;-81
2021/07/16 06:42:37;;;;;;;5.67;3.10;;;;;;;26.09;100.00;96106.59;5055627;28;20732;-81
2021/07/16 06:45:06;;;;;;;15.50;3.90;;;;;;;26.17;100.00;96119.53;5054764;28;20200;-81
2021/07/16 06:47:34;;;;;;;6.33;3.47;;;;;;;26.42;100.00;96128.81;5055417;28;20301;-81
2021/07/16 06:50:01;;;;;;;5.38;3.22;;;;;;;26.61;100.00;96124.63;5054897;28;20625;-81
2021/07/16 06:52:30;;;;;;;7.22;3.53;;;;;;;26.91;100.00;96123.09;5055131;28;20293;-82
2021/07/16 06:54:57;;;;;;;8.50;3.70;;;;;;;27.04;100.00;96134.19;5054449;28;20220;-81
2021/07/16 06:57:25;;;;;;;4.03;3.22;;;;;;;27.49;100.00;96138.06;5055053;28;20186;-82
2021/07/16 06:59:52;;;;;;;7.15;3.38;;;;;;;27.54;100.00;96152.63;5054613;28;20260;-82
2021/07/16 07:02:19;;;;;;;6.72;3.00;;;;;;;27.88;100.00;96144.84;5055036;28;20288;-82
2021/07/16 07:04:46;;;;;;;8.80;3.63;;;;;;;27.88;100.00;96161.84;5054431;28;20289;-82
2021/07/16 07:07:14;;;;;;;5.32;3.25;;;;;;;28.09;100.00;96154.56;5055168;28;20229;-82
2021/07/16 07:09:43;;;;;;;6.68;3.35;;;;;;;28.25;100.00;96149.91;5054705;28;20675;-82
2021/07/16 07:12:10;;;;;;;5.18;2.70;;;;;;;28.36;100.00;96164.22;5054772;28;20244;-82
2021/07/16 07:14:39;;;;;;;5.22;3.42;;;;;;;28.30;100.00;96168.00;5054450;28;20252;-82
2021/07/16 07:17:06;;;;;;;5.43;2.47;;;;;;;28.33;100.00;96160.16;5054766;28;20229;-82
2021/07/16 07:19:34;;;;;;;7.25;2.65;;;;;;;27.97;100.00;96175.63;5054294;28;20276;-82
2021/07/16 07:22:02;;;;;;;5.40;2.92;;;;;;;28.23;100.00;96176.44;5054583;28;20662;-82
2021/07/16 07:24:29;;;;;;;3.60;2.80;;;;;;;28.34;100.00;96177.22;5054470;28;20591;-82
2021/07/16 07:26:58;;;;;;;6.03;3.05;;;;;;;28.40;100.00;96170.72;5054673;28;20662;-82
2021/07/16 07:29:26;;;;;;;6.82;2.67;;;;;;;28.41;100.00;96180.47;5054196;28;20198;-82
2021/07/16 07:31:53;;;;;;;4.60;3.03;;;;;;;28.68;100.00;96177.38;5054400;28;20296;-82
2021/07/16 07:34:21;;;;;;;8.00;3.40;;;;;;;28.43;100.00;96180.97;5054243;28;20229;-81
2021/07/16 07:36:49;;;;;;;5.35;2.47;;;;;;;29.06;100.00;96180.50;5054308;28;20225;-81
2021/07/16 07:39:17;;;;;;;3.15;2.70;;;;;;;28.90;100.00;96180.56;5053985;28;20256;-82
2021/07/16 07:41:46;;;;;;;9.27;3.42;;;;;;;29.20;100.00;96180.69;5054135;28;20252;-82
2021/07/16 07:44:17;;;;;;;4.43;2.67;;;;;;;28.92;100.00;96180.25;5053700;28;20206;-82
2021/07/16 07:46:45;;;;;;;4.75;2.60;;;;;;;29.29;100.00;96181.75;5054158;28;20674;-82
2021/07/16 07:49:13;;;;;;;4.32;2.85;;;;;;;29.35;100.00;96176.00;5053229;28;20226;-82
2021/07/16 07:51:42;;;;;;;6.70;2.70;;;;;;;29.42;100.00;96186.53;5053998;28;20194;-82
2021/07/16 07:54:10;;;;;;;6.32;3.67;;;;;;;29.23;100.00;96178.25;5053805;28;20225;-82
2021/07/16 07:56:38;;;;;;;7.30;2.30;;;;;;;29.66;100.00;96186.66;5053815;28;20591;-82
2021/07/16 07:59:06;;;;;;;3.22;3.03;;;;;;;29.91;100.00;96177.53;5053673;28;20222;-82
2021/07/16 08:01:36;;;;;;;3.15;2.60;;;;;;;29.66;100.00;96175.84;5053860;28;20202;-82
2021/07/16 08:04:04;;;;;;;4.35;2.63;;;;;;;29.88;100.00;96180.00;5053466;28;20202;-82
2021/07/16 08:06:31;;;;;;;2.63;2.28;;;;;;;29.36;100.00;96180.34;5053982;28;20631;-81
2021/07/16 08:08:59;;;;;;;4.18;2.55;;;;;;;29.54;100.00;96176.16;5053587;28;20762;-82
2021/07/16 08:11:29;;;;;;;4.85;2.35;;;;;;;30.10;100.00;96174.91;5053584;28;20232;-82
2021/07/16 08:13:57;;;;;;;3.25;2.95;;;;;;;30.22;100.00;96177.28;5053722;28;20271;-82
2021/07/16 08:16:24;;;;;;;3.65;2.75;;;;;;;30.12;100.00;96171.94;5053630;28;20198;-82
2021/07/16 08:18:54;;;;;;;7.88;2.47;;;;;;;29.97;100.00;96170.97;5053620;28;20198;-82
2021/07/16 08:21:21;;;;;;;2.50;2.30;;;;;;;30.00;100.00;96166.91;5053544;28;20589;-82
2021/07/16 08:23:49;;;;;;;3.25;2.10;;;;;;;29.68;100.00;96168.22;5053231;28;20194;-82
2021/07/16 08:26:18;;;;;;;2.35;2.15;;;;;;;29.96;100.00;96166.66;5053401;28;20198;-82
2021/07/16 08:28:46;;;;;;;3.60;2.30;;;;;;;30.27;100.00;96169.09;5053134;28;20733;-82
2021/07/16 08:31:13;;;;;;;5.32;2.47;;;;;;;30.36;100.00;96167.38;5053499;28;20271;-82
2021/07/16 08:33:40;;;;;;;3.10;2.72;;;;;;;30.75;100.00;96166.38;5053098;28;20193;-82
2021/07/16 08:36:09;;;;;;;5.65;2.50;;;;;;;30.81;100.00;96157.13;5053128;28;20293;-82
2021/07/16 08:38:37;;;;;;;4.65;2.33;;;;;;;30.95;100.00;96151.78;5052958;28;20605;-82
2021/07/16 08:41:04;;;;;;;7.20;3.45;;;;;;;30.81;100.00;96156.31;5052796;28;20651;-81
2021/07/16 08:43:35;;;;;;;3.55;2.60;;;;;;;30.92;100.00;96153.19;5053109;28;20571;-82
2021/07/16 08:46:03;;;;;;;3.40;2.63;;;;;;;30.81;100.00;96145.47;5053288;28;20186;-82
2021/07/16 08:48:31;;;;;;;6.28;2.45;;;;;;;30.59;100.00;96143.25;5052837;28;20193;-82
2021/07/16 08:51:01;;;;;;;4.63;2.63;;;;;;;30.67;100.00;96145.34;5052545;28;20204;-82
2021/07/16 08:53:32;;;;;;;4.88;2.40;;;;;;;30.74;100.00;96149.31;5052625;28;20290;-82
2021/07/16 08:56:02;;;;;;;5.43;2.08;;;;;;;30.81;100.00;96150.91;5052801;28;20237;-82
2021/07/16 08:58:30;;;;;;;6.70;2.60;;;;;;;30.68;100.00;96142.31;5052840;28;20298;-82
2021/07/16 09:00:57;;;;;;;7.22;2.58;;;;;;;30.81;100.00;96142.75;5051438;28;20308;-82
2021/07/16 09:03:26;;;;;;;3.10;2.17;;;;;;;30.66;100.00;96143.72;5052978;28;20198;-82
2021/07/16 09:05:53;;;;;;;5.07;2.40;;;;;;;30.66;100.00;96147.25;5052654;28;20202;-82
2021/07/16 09:08:22;;;;;;;2.40;2.20;;;;;;;30.92;100.00;96139.63;5052325;28;20204;-82
2021/07/16 09:10:52;;;;;;;5.53;2.67;;;;;;;30.63;100.00;96144.31;5052543;28;20296;-82
2021/07/16 09:13:23;;;;;;;4.55;2.50;;;;;;;31.03;100.00;96132.13;5052923;28;20572;-83
2021/07/16 09:15:51;;;;;;;11.73;3.20;;;;;;;31.06;100.00;96133.47;5052429;28;20194;-82
2021/07/16 09:18:23;;;;;;;8.77;2.92;;;;;;;30.58;100.00;96138.94;5052221;28;20198;-82
2021/07/16 09:21:05;;;;;;;3.20;2.90;;;;;;;30.78;100.00;96136.81;5052294;28;20241;-82
2021/07/16 09:23:37;;;;;;;4.35;2.50;;;;;;;31.00;100.00;96133.56;5051930;28;20193;-82
2021/07/16 09:26:10;;;;;;;8.20;2.83;;;;;;;31.09;100.00;96141.03;5052267;28;20225;-83
2021/07/16 09:28:38;;;;;;;7.50;2.78;;;;;;;31.13;100.00;96134.72;5052083;28;20197;-83
2021/07/16 09:31:14;;;;;;;4.72;2.88;;;;;;;31.32;100.00;96144.81;5051866;28;20232;-83
2021/07/16 09:33:47;;;;;;;5.07;3.22;;;;;;;31.22;100.00;96134.88;5051961;28;20247;-82
2021/07/16 09:36:24;;;;;;;4.78;2.33;;;;;;;31.32;100.00;96132.03;5052133;28;20189;-82
2021/07/16 09:38:53;;;;;;;6.25;3.17;;;;;;;31.29;100.00;96126.34;5052223;28;20186;-82
2021/07/16 09:41:22;;;;;;;4.47;3.00;;;;;;;31.58;100.00;96127.00;5051746;28;20225;-82
2021/07/16 09:43:58;;;;;;;6.70;3.00;;;;;;;31.60;100.00;96124.81;5051736;28;20240;-82
2021/07/16 09:46:26;;;;;;;5.88;3.22;;;;;;;31.40;100.00;96130.56;5052052;28;20229;-82
2021/07/16 09:48:53;;;;;;;7.15;3.65;;;;;;;31.31;100.00;96127.66;5051668;28;20197;-82
2021/07/16 09:51:23;;;;;;;7.05;3.40;;;;;;;31.72;100.00;96129.78;5051914;28;20275;-82
2021/07/16 09:53:54;;;;;;;7.65;3.85;;;;;;;31.89;100.00;96127.34;5051749;28;20240;-83
2021/07/16 09:56:24;;;;;;;3.65;3.22;;;;;;;31.64;100.00;96117.69;5051803;28;20233;-82
2021/07/16 09:59:03;;;;;;;9.23;3.92;;;;;;;31.10;100.00;96121.72;5051979;28;20185;-82
2021/07/16 10:01:31;;;;;;;6.20;3.78;;;;;;;31.33;100.00;96113.84;5051486;28;20259;-82
2021/07/16 10:03:59;;;;;;;6.35;3.55;;;;;;;31.52;100.00;96111.88;5051534;28;20197;-83
2021/07/16 10:06:28;;;;;;;5.60;3.58;;;;;;;31.22;100.00;96124.00;5051783;28;20190;-82
2021/07/16 10:08:57;;;;;;;4.05;3.60;;;;;;;31.26;100.00;96117.69;5051223;28;20205;-82
2021/07/16 10:11:29;;;;;;;5.85;3.92;;;;;;;31.23;100.00;96112.03;5053068;28;20632;-82
2021/07/16 10:13:57;;;;;;;8.13;3.53;;;;;;;31.15;100.00;96104.56;5055727;28;20225;-82
2021/07/16 10:16:25;;;;;;;3.88;3.20;;;;;;;31.53;100.00;96110.00;5055771;28;20197;-82
2021/07/16 10:18:53;;;;;;;4.93;3.28;;;;;;;31.80;100.00;96104.66;5055311;28;20284;-83
2021/07/16 10:21:22;;;;;;;8.82;3.53;;;;;;;31.60;100.00;96100.38;5055632;28;20724;-82
2021/07/16 10:23:51;;;;;;;9.60;3.63;;;;;;;31.93;100.00;96103.88;5055456;28;20194;-83
2021/07/16 10:26:22;;;;;;;8.88;2.97;;;;;;;32.08;100.00;96099.31;5055572;28;20277;-83
2021/07/16 10:28:52;;;;;;;9.20;3.33;;;;;;;31.58;100.00;96088.16;5055178;28;20638;-82
2021/07/16 10:31:42;;;;;;;7.72;4.25;;;;;;;31.73;100.00;96094.16;5055469;28;20204;-82
2021/07/16 10:34:34;;;;;;;7.22;3.08;;;;;;;32.20;100.00;96084.09;5055361;28;20186;-83
2021/07/16 10:37:04;;;;;;;5.03;3.53;;;;;;;32.14;100.00;96082.56;5047343;28;20198;-82
2021/07/16 10:39:43;;;;;;;5.80;3.85;;;;;;;32.08;100.00;96089.22;5055312;28;20197;-82
2021/07/16 10:42:39;;;;;;;6.22;3.53;;;;;;;32.14;100.00;96081.75;5055522;28;20185;-83
2021/07/16 10:45:10;;;;;;;7.90;3.10;;;;;;;32.06;100.00;96096.06;5055205;28;20292;-82
2021/07/16 10:47:39;;;;;;;5.57;3.83;;;;;;;32.28;100.00;96092.66;5055370;28;20640;-83
2021/07/16 10:50:09;;;;;;;4.57;3.45;;;;;;;32.49;100.00;96087.63;5054969;28;20224;-83
2021/07/16 10:52:45;;;;;;;5.82;3.30;;;;;;;32.67;100.00;96086.72;5055170;28;20212;-83
2021/07/16 10:55:14;;;;;;;5.43;3.15;;;;;;;32.44;100.00;96069.50;5055170;28;20185;-83
2021/07/16 10:57:43;;;;;;;5.05;3.47;;;;;;;32.61;100.00;96080.59;5054872;28;20186;-83
2021/07/16 11:00:33;;;;;;;5.60;3.30;;;;;;;32.55;100.00;96081.00;5054849;28;20228;-83
2021/07/16 11:03:08;;;;;;;5.90;2.88;;;;;;;32.72;100.00;96073.00;5054522;28;20289;-83
2021/07/16 11:05:54;;;;;;;3.13;2.90;;;;;;;32.91;100.00;96070.97;5055140;28;20189;-83
2021/07/16 11:08:29;;;;;;;4.15;3.28;;;;;;;32.76;100.00;96073.19;5054416;28;20197;-83
2021/07/16 11:11:02;;;;;;;5.28;3.38;;;;;;;32.79;100.00;96072.59;5055127;28;20259;-83
2021/07/16 11:13:34;;;;;;;4.85;2.72;;;;;;;32.48;100.00;96067.78;5054506;28;20197;-83
2021/07/16 11:16:45;;;;;;;4.40;3.70;;;;;;;32.59;100.00;96063.75;5054658;28;20194;-83
2021/07/16 11:19:23;;;;;;;4.22;3.30;;;;;;;32.87;100.00;96059.06;5054576;28;20647;-82
2021/07/16 11:22:06;;;;;;;3.67;3.13;;;;;;;32.82;100.00;96061.09;5054441;28;20261;-82
2021/07/16 11:24:34;;;;;;;5.05;2.97;;;;;;;32.95;100.00;96064.91;5053178;28;20218;-82
2021/07/16 11:27:05;;;;;;;3.95;3.10;;;;;;;32.54;100.00;96066.59;5054484;28;20655;-82
2021/07/16 11:29:35;;;;;;;4.05;3.17;;;;;;;32.36;100.00;96062.84;5054350;28;20182;-82
2021/07/16 11:32:13;;;;;;;7.82;3.20;;;;;;;32.40;100.00;96060.31;5054416;28;20182;-83